sensor_id;sensor_type;location;lat;lon;timestamp;temperature;humidity
16321;DHT22;8269;50.990;4.494;2024-01-07T00:40:56;3.10;99.90
16321;DHT22;8269;50.990;4.494;2024-01-07T00:43:21;3.10;99.90
16321;DHT22;8269;50.990;4.494;2024-01-07T00:45:47;3.10;99.90
16321;DHT22;8269;50.990;4.494;2024-01-07T00:48:14;3.10;99.90
16321;DHT22;8269;50.990;4.494;2024-01-07T00:50:40;3.10;99.90
16321;DHT22;8269;50.990;4.494;2024-01-07T00:53:06;3.10;99.90
16321;DHT22;8269;50.990;4.494;2024-01-07T00:55:31;3.10;99.90
16321;DHT22;8269;50.990;4.494;2024-01-07T00:57:57;3.00;99.90
16321;DHT22;8269;50.990;4.494;2024-01-07T01:00:23;3.10;99.90
16321;DHT22;8269;50.990;4.494;2024-01-07T01:02:48;3.00;99.90
16321;DHT22;8269;50.990;4.494;2024-01-07T01:05:14;3.00;99.90
16321;DHT22;8269;50.990;4.494;2024-01-07T01:07:40;3.00;99.90
16321;DHT22;8269;50.990;4.494;2024-01-07T01:10:06;3.00;99.90
16321;DHT22;8269;50.990;4.494;2024-01-07T01:12:32;3.00;99.90
16321;DHT22;8269;50.990;4.494;2024-01-07T01:14:58;3.10;99.90
16321;DHT22;8269;50.990;4.494;2024-01-07T01:17:23;3.00;99.90
16321;DHT22;8269;50.990;4.494;2024-01-07T01:19:49;3.00;99.90
16321;DHT22;8269;50.990;4.494;2024-01-07T01:22:15;3.00;99.90
16321;DHT22;8269;50.990;4.494;2024-01-07T01:24:40;2.90;99.90
16321;DHT22;8269;50.990;4.494;2024-01-07T01:27:06;2.80;99.90
16321;DHT22;8269;50.990;4.494;2024-01-07T01:29:32;2.80;99.90
16321;DHT22;8269;50.990;4.494;2024-01-07T01:31:57;2.70;99.90
16321;DHT22;8269;50.990;4.494;2024-01-07T01:36:49;2.60;99.90
16321;DHT22;8269;50.990;4.494;2024-01-07T01:39:15;2.70;99.90
16321;DHT22;8269;50.990;4.494;2024-01-07T01:41:41;2.60;99.90
16321;DHT22;8269;50.990;4.494;2024-01-07T01:44:06;2.50;99.90
16321;DHT22;8269;50.990;4.494;2024-01-07T01:46:32;2.50;99.90
16321;DHT22;8269;50.990;4.494;2024-01-07T01:48:59;2.40;99.90
16321;DHT22;8269;50.990;4.494;2024-01-07T01:51:25;2.40;99.90
16321;DHT22;8269;50.990;4.494;2024-01-07T01:53:51;2.30;99.90
16321;DHT22;8269;50.990;4.494;2024-01-07T01:56:18;2.40;99.90
16321;DHT22;8269;50.990;4.494;2024-01-07T01:58:46;2.40;99.90
16321;DHT22;8269;50.990;4.494;2024-01-07T02:01:13;2.40;99.90
16321;DHT22;8269;50.990;4.494;2024-01-07T02:03:39;2.40;99.90
16321;DHT22;8269;50.990;4.494;2024-01-07T02:06:04;2.30;99.90
16321;DHT22;8269;50.990;4.494;2024-01-07T02:08:30;2.30;99.90
16321;DHT22;8269;50.990;4.494;2024-01-07T02:10:56;2.30;99.90
16321;DHT22;8269;50.990;4.494;2024-01-07T02:13:22;2.30;99.90
16321;DHT22;8269;50.990;4.494;2024-01-07T02:18:14;2.30;99.90
16321;DHT22;8269;50.990;4.494;2024-01-07T02:20:40;2.30;99.90
16321;DHT22;8269;50.990;4.494;2024-01-07T02:23:05;2.30;99.90
16321;DHT22;8269;50.990;4.494;2024-01-07T02:25:37;2.20;99.90
16321;DHT22;8269;50.990;4.494;2024-01-07T02:28:04;2.30;99.90
16321;DHT22;8269;50.990;4.494;2024-01-07T02:30:30;2.30;99.90
16321;DHT22;8269;50.990;4.494;2024-01-07T02:32:55;2.30;99.90
16321;DHT22;8269;50.990;4.494;2024-01-07T02:35:21;2.20;99.90
16321;DHT22;8269;50.990;4.494;2024-01-07T02:40:13;2.20;99.90
16321;DHT22;8269;50.990;4.494;2024-01-07T02:42:38;2.30;99.90
16321;DHT22;8269;50.990;4.494;2024-01-07T02:45:04;2.20;99.90
16321;DHT22;8269;50.990;4.494;2024-01-07T02:47:30;2.20;99.90
16321;DHT22;8269;50.990;4.494;2024-01-07T02:49:56;2.10;99.90
16321;DHT22;8269;50.990;4.494;2024-01-07T02:52:21;2.10;99.90
16321;DHT22;8269;50.990;4.494;2024-01-07T02:54:47;2.10;99.90
16321;DHT22;8269;50.990;4.494;2024-01-07T02:57:13;2.10;99.90
16321;DHT22;8269;50.990;4.494;2024-01-07T02:59:38;2.20;99.90
16321;DHT22;8269;50.990;4.494;2024-01-07T03:02:04;2.20;99.90
16321;DHT22;8269;50.990;4.494;2024-01-07T03:04:30;2.20;99.90
16321;DHT22;8269;50.990;4.494;2024-01-07T03:06:55;2.10;99.90
16321;DHT22;8269;50.990;4.494;2024-01-07T03:09:21;2.10;99.90
16321;DHT22;8269;50.990;4.494;2024-01-07T03:11:46;2.10;99.90
16321;DHT22;8269;50.990;4.494;2024-01-07T03:14:12;2.10;99.90
16321;DHT22;8269;50.990;4.494;2024-01-07T03:16:38;2.10;99.90
16321;DHT22;8269;50.990;4.494;2024-01-07T03:19:03;2.10;99.90
16321;DHT22;8269;50.990;4.494;2024-01-07T03:21:30;2.20;99.90
16321;DHT22;8269;50.990;4.494;2024-01-07T03:23:55;2.10;99.90
16321;DHT22;8269;50.990;4.494;2024-01-07T03:26:21;2.10;99.90
16321;DHT22;8269;50.990;4.494;2024-01-07T03:28:47;2.10;99.90
16321;DHT22;8269;50.990;4.494;2024-01-07T03:31:14;2.20;99.90
16321;DHT22;8269;50.990;4.494;2024-01-07T03:33:41;2.10;99.90
16321;DHT22;8269;50.990;4.494;2024-01-07T04:10:12;2.10;99.90
16321;DHT22;8269;50.990;4.494;2024-01-07T04:12:38;2.00;99.90
16321;DHT22;8269;50.990;4.494;2024-01-07T04:15:04;2.00;99.90
16321;DHT22;8269;50.990;4.494;2024-01-07T04:17:30;1.90;99.90
16321;DHT22;8269;50.990;4.494;2024-01-07T04:19:56;1.90;99.90
16321;DHT22;8269;50.990;4.494;2024-01-07T04:22:21;1.90;99.90
16321;DHT22;8269;50.990;4.494;2024-01-07T04:24:47;1.90;99.90
16321;DHT22;8269;50.990;4.494;2024-01-07T04:27:13;1.90;99.90
16321;DHT22;8269;50.990;4.494;2024-01-07T04:29:38;1.90;99.90
16321;DHT22;8269;50.990;4.494;2024-01-07T04:32:04;1.90;99.90
16321;DHT22;8269;50.990;4.494;2024-01-07T04:34:30;1.80;99.90
16321;DHT22;8269;50.990;4.494;2024-01-07T04:36:55;1.90;99.90
16321;DHT22;8269;50.990;4.494;2024-01-07T04:39:21;1.80;99.90
16321;DHT22;8269;50.990;4.494;2024-01-07T04:41:47;1.80;99.90
16321;DHT22;8269;50.990;4.494;2024-01-07T04:44:12;1.80;99.90
16321;DHT22;8269;50.990;4.494;2024-01-07T04:46:39;1.80;99.90
16321;DHT22;8269;50.990;4.494;2024-01-07T04:49:05;2.00;99.90
16321;DHT22;8269;50.990;4.494;2024-01-07T04:53:59;1.90;99.90
16321;DHT22;8269;50.990;4.494;2024-01-07T04:56:25;1.90;99.90
16321;DHT22;8269;50.990;4.494;2024-01-07T04:58:51;1.90;99.90
16321;DHT22;8269;50.990;4.494;2024-01-07T05:01:16;1.80;99.90
16321;DHT22;8269;50.990;4.494;2024-01-07T05:03:42;1.90;99.90
16321;DHT22;8269;50.990;4.494;2024-01-07T05:06:11;1.80;99.90
16321;DHT22;8269;50.990;4.494;2024-01-07T05:08:37;1.80;99.90
16321;DHT22;8269;50.990;4.494;2024-01-07T05:11:03;1.80;99.90
16321;DHT22;8269;50.990;4.494;2024-01-07T05:13:30;1.70;99.90
16321;DHT22;8269;50.990;4.494;2024-01-07T05:18:24;1.50;99.90
16321;DHT22;8269;50.990;4.494;2024-01-07T05:20:50;1.70;99.90
16321;DHT22;8269;50.990;4.494;2024-01-07T05:23:16;1.70;99.90
16321;DHT22;8269;50.990;4.494;2024-01-07T05:25:43;1.70;99.90
16321;DHT22;8269;50.990;4.494;2024-01-07T05:28:09;1.80;99.90
16321;DHT22;8269;50.990;4.494;2024-01-07T05:30:35;1.70;99.90
16321;DHT22;8269;50.990;4.494;2024-01-07T05:33:01;1.60;99.90
16321;DHT22;8269;50.990;4.494;2024-01-07T05:35:27;1.60;99.90
16321;DHT22;8269;50.990;4.494;2024-01-07T05:37:52;1.70;99.90
16321;DHT22;8269;50.990;4.494;2024-01-07T05:40:18;1.70;99.90
16321;DHT22;8269;50.990;4.494;2024-01-07T05:45:10;1.70;99.90
16321;DHT22;8269;50.990;4.494;2024-01-07T05:47:35;1.70;99.90
16321;DHT22;8269;50.990;4.494;2024-01-07T05:50:01;1.70;99.90
16321;DHT22;8269;50.990;4.494;2024-01-07T05:52:27;1.70;99.90
16321;DHT22;8269;50.990;4.494;2024-01-07T05:54:53;1.70;99.90
16321;DHT22;8269;50.990;4.494;2024-01-07T05:57:19;1.70;99.90
16321;DHT22;8269;50.990;4.494;2024-01-07T05:59:45;1.70;99.90
16321;DHT22;8269;50.990;4.494;2024-01-07T06:02:11;1.70;99.90
16321;DHT22;8269;50.990;4.494;2024-01-07T06:04:38;1.70;99.90
16321;DHT22;8269;50.990;4.494;2024-01-07T06:07:03;1.70;99.90
16321;DHT22;8269;50.990;4.494;2024-01-07T06:09:29;1.70;99.90
16321;DHT22;8269;50.990;4.494;2024-01-07T06:11:55;1.70;99.90
16321;DHT22;8269;50.990;4.494;2024-01-07T06:14:22;1.70;99.90
16321;DHT22;8269;50.990;4.494;2024-01-07T06:16:48;1.70;99.90
16321;DHT22;8269;50.990;4.494;2024-01-07T06:19:16;1.70;99.90
16321;DHT22;8269;50.990;4.494;2024-01-07T06:21:42;1.70;99.90
16321;DHT22;8269;50.990;4.494;2024-01-07T06:24:08;1.70;99.90
16321;DHT22;8269;50.990;4.494;2024-01-07T06:26:34;1.70;99.90
16321;DHT22;8269;50.990;4.494;2024-01-07T06:28:59;1.70;99.90
16321;DHT22;8269;50.990;4.494;2024-01-07T06:31:25;1.70;99.90
16321;DHT22;8269;50.990;4.494;2024-01-07T06:33:51;1.70;99.90
16321;DHT22;8269;50.990;4.494;2024-01-07T06:36:17;1.70;99.90
16321;DHT22;8269;50.990;4.494;2024-01-07T06:38:43;1.70;99.90
16321;DHT22;8269;50.990;4.494;2024-01-07T06:41:11;1.70;99.90
16321;DHT22;8269;50.990;4.494;2024-01-07T06:43:37;1.70;99.90
16321;DHT22;8269;50.990;4.494;2024-01-07T06:46:02;1.70;99.90
16321;DHT22;8269;50.990;4.494;2024-01-07T06:48:28;1.70;99.90
16321;DHT22;8269;50.990;4.494;2024-01-07T06:50:54;1.70;99.90
16321;DHT22;8269;50.990;4.494;2024-01-07T06:53:19;1.70;99.90
16321;DHT22;8269;50.990;4.494;2024-01-07T06:55:46;1.70;99.90
16321;DHT22;8269;50.990;4.494;2024-01-07T06:58:12;1.70;99.90
16321;DHT22;8269;50.990;4.494;2024-01-07T07:00:38;1.70;99.90
16321;DHT22;8269;50.990;4.494;2024-01-07T07:03:03;1.70;99.90
16321;DHT22;8269;50.990;4.494;2024-01-07T07:05:30;1.70;99.90
16321;DHT22;8269;50.990;4.494;2024-01-07T07:07:56;1.80;99.90
16321;DHT22;8269;50.990;4.494;2024-01-07T07:10:22;1.70;99.90
16321;DHT22;8269;50.990;4.494;2024-01-07T07:12:47;1.70;99.90
16321;DHT22;8269;50.990;4.494;2024-01-07T07:15:13;1.80;99.90
16321;DHT22;8269;50.990;4.494;2024-01-07T07:17:39;1.80;99.90
16321;DHT22;8269;50.990;4.494;2024-01-07T07:20:06;1.70;99.90
16321;DHT22;8269;50.990;4.494;2024-01-07T07:22:32;1.80;99.90
16321;DHT22;8269;50.990;4.494;2024-01-07T07:24:57;1.80;99.90
16321;DHT22;8269;50.990;4.494;2024-01-07T07:27:23;1.80;99.90
16321;DHT22;8269;50.990;4.494;2024-01-07T07:29:49;1.90;99.90
16321;DHT22;8269;50.990;4.494;2024-01-07T07:32:15;1.80;99.90
16321;DHT22;8269;50.990;4.494;2024-01-07T07:34:40;1.80;99.90
16321;DHT22;8269;50.990;4.494;2024-01-07T07:37:06;1.70;99.90
16321;DHT22;8269;50.990;4.494;2024-01-07T07:39:31;1.90;99.90
16321;DHT22;8269;50.990;4.494;2024-01-07T07:41:57;1.80;99.90
16321;DHT22;8269;50.990;4.494;2024-01-07T07:44:23;1.70;99.90
16321;DHT22;8269;50.990;4.494;2024-01-07T07:46:48;1.70;99.90
16321;DHT22;8269;50.990;4.494;2024-01-07T07:49:14;1.70;99.90
16321;DHT22;8269;50.990;4.494;2024-01-07T07:51:40;1.70;99.90
16321;DHT22;8269;50.990;4.494;2024-01-07T07:54:06;1.70;99.90
16321;DHT22;8269;50.990;4.494;2024-01-07T07:56:32;1.70;99.90
16321;DHT22;8269;50.990;4.494;2024-01-07T07:58:58;1.60;99.90
16321;DHT22;8269;50.990;4.494;2024-01-07T08:01:23;1.70;99.90
16321;DHT22;8269;50.990;4.494;2024-01-07T08:03:49;1.80;99.90
16321;DHT22;8269;50.990;4.494;2024-01-07T08:06:15;1.70;99.90
16321;DHT22;8269;50.990;4.494;2024-01-07T08:08:41;1.70;99.90
16321;DHT22;8269;50.990;4.494;2024-01-07T08:11:06;1.70;99.90
16321;DHT22;8269;50.990;4.494;2024-01-07T08:13:37;1.60;99.90
16321;DHT22;8269;50.990;4.494;2024-01-07T08:16:03;1.60;99.90
16321;DHT22;8269;50.990;4.494;2024-01-07T08:18:30;1.60;99.90
16321;DHT22;8269;50.990;4.494;2024-01-07T08:20:56;1.70;99.90
16321;DHT22;8269;50.990;4.494;2024-01-07T08:23:22;1.60;99.90
16321;DHT22;8269;50.990;4.494;2024-01-07T08:25:48;1.60;99.90
16321;DHT22;8269;50.990;4.494;2024-01-07T08:28:14;1.60;99.90
16321;DHT22;8269;50.990;4.494;2024-01-07T08:30:39;1.60;99.90
16321;DHT22;8269;50.990;4.494;2024-01-07T08:33:05;1.60;99.90
16321;DHT22;8269;50.990;4.494;2024-01-07T08:40:24;1.60;99.90
16321;DHT22;8269;50.990;4.494;2024-01-07T08:42:49;1.60;99.90
16321;DHT22;8269;50.990;4.494;2024-01-07T08:45:15;1.50;99.90
16321;DHT22;8269;50.990;4.494;2024-01-07T08:47:41;1.50;99.90
16321;DHT22;8269;50.990;4.494;2024-01-07T08:50:06;1.80;99.90
16321;DHT22;8269;50.990;4.494;2024-01-07T08:52:33;1.50;99.90
16321;DHT22;8269;50.990;4.494;2024-01-07T08:55:01;1.40;99.90
16321;DHT22;8269;50.990;4.494;2024-01-07T08:57:27;1.50;99.90
16321;DHT22;8269;50.990;4.494;2024-01-07T08:59:53;1.50;99.90
16321;DHT22;8269;50.990;4.494;2024-01-07T09:02:19;1.50;99.90
16321;DHT22;8269;50.990;4.494;2024-01-07T09:04:44;1.50;99.90
16321;DHT22;8269;50.990;4.494;2024-01-07T09:07:10;1.50;99.90
16321;DHT22;8269;50.990;4.494;2024-01-07T09:09:36;1.50;99.90
16321;DHT22;8269;50.990;4.494;2024-01-07T09:12:02;1.50;99.90
16321;DHT22;8269;50.990;4.494;2024-01-07T09:14:29;1.50;99.90
16321;DHT22;8269;50.990;4.494;2024-01-07T09:16:55;1.50;99.90
16321;DHT22;8269;50.990;4.494;2024-01-07T09:19:21;1.60;99.90
16321;DHT22;8269;50.990;4.494;2024-01-07T09:21:47;1.40;99.90
16321;DHT22;8269;50.990;4.494;2024-01-07T09:24:12;1.60;99.90
16321;DHT22;8269;50.990;4.494;2024-01-07T09:26:38;1.50;99.90
16321;DHT22;8269;50.990;4.494;2024-01-07T09:29:03;1.50;99.90
16321;DHT22;8269;50.990;4.494;2024-01-07T09:31:29;1.50;99.90
16321;DHT22;8269;50.990;4.494;2024-01-07T09:33:55;1.50;99.90
16321;DHT22;8269;50.990;4.494;2024-01-07T09:36:20;1.50;99.90
16321;DHT22;8269;50.990;4.494;2024-01-07T09:38:46;1.30;99.90
16321;DHT22;8269;50.990;4.494;2024-01-07T09:43:38;1.50;99.90
16321;DHT22;8269;50.990;4.494;2024-01-07T09:46:03;1.50;99.90
16321;DHT22;8269;50.990;4.494;2024-01-07T09:48:29;1.60;99.90
16321;DHT22;8269;50.990;4.494;2024-01-07T09:50:57;1.50;99.90
16321;DHT22;8269;50.990;4.494;2024-01-07T09:53:25;1.50;99.90
16321;DHT22;8269;50.990;4.494;2024-01-07T09:58:25;1.50;99.90
16321;DHT22;8269;50.990;4.494;2024-01-07T10:00:51;1.40;99.90
16321;DHT22;8269;50.990;4.494;2024-01-07T10:03:17;1.40;99.90
16321;DHT22;8269;50.990;4.494;2024-01-07T10:05:43;1.50;99.90
16321;DHT22;8269;50.990;4.494;2024-01-07T10:08:09;1.50;99.90
16321;DHT22;8269;50.990;4.494;2024-01-07T10:10:35;1.50;99.90
16321;DHT22;8269;50.990;4.494;2024-01-07T10:13:01;1.50;99.90
16321;DHT22;8269;50.990;4.494;2024-01-07T10:15:28;1.40;99.90
16321;DHT22;8269;50.990;4.494;2024-01-07T10:18:03;1.50;99.90
16321;DHT22;8269;50.990;4.494;2024-01-07T10:20:32;1.40;99.90
16321;DHT22;8269;50.990;4.494;2024-01-07T10:22:58;1.40;99.90
16321;DHT22;8269;50.990;4.494;2024-01-07T10:25:24;1.40;99.90
16321;DHT22;8269;50.990;4.494;2024-01-07T10:27:49;1.40;99.90
16321;DHT22;8269;50.990;4.494;2024-01-07T10:30:18;1.40;99.90
16321;DHT22;8269;50.990;4.494;2024-01-07T10:32:44;1.40;99.90
16321;DHT22;8269;50.990;4.494;2024-01-07T10:47:31;1.60;99.90
16321;DHT22;8269;50.990;4.494;2024-01-07T10:49:58;1.60;99.90
16321;DHT22;8269;50.990;4.494;2024-01-07T10:52:27;1.50;99.90
16321;DHT22;8269;50.990;4.494;2024-01-07T10:54:54;1.60;99.90
16321;DHT22;8269;50.990;4.494;2024-01-07T10:57:43;1.60;99.90
16321;DHT22;8269;50.990;4.494;2024-01-07T11:00:16;1.60;99.90
16321;DHT22;8269;50.990;4.494;2024-01-07T11:03:08;1.30;99.90
16321;DHT22;8269;50.990;4.494;2024-01-07T11:05:50;1.60;99.90
16321;DHT22;8269;50.990;4.494;2024-01-07T11:08:28;1.50;99.90
16321;DHT22;8269;50.990;4.494;2024-01-07T11:11:05;1.50;99.90
16321;DHT22;8269;50.990;4.494;2024-01-07T11:13:36;1.50;99.90
16321;DHT22;8269;50.990;4.494;2024-01-07T11:16:07;1.50;99.90
16321;DHT22;8269;50.990;4.494;2024-01-07T11:18:40;1.40;99.90
16321;DHT22;8269;50.990;4.494;2024-01-07T11:21:10;1.40;99.90
16321;DHT22;8269;50.990;4.494;2024-01-07T11:23:37;1.40;99.90
16321;DHT22;8269;50.990;4.494;2024-01-07T11:26:07;1.40;99.90
16321;DHT22;8269;50.990;4.494;2024-01-07T11:29:01;1.40;99.90
16321;DHT22;8269;50.990;4.494;2024-01-07T11:34:05;1.50;99.90
16321;DHT22;8269;50.990;4.494;2024-01-07T11:36:32;1.50;99.90
16321;DHT22;8269;50.990;4.494;2024-01-07T11:39:00;1.50;99.90
16321;DHT22;8269;50.990;4.494;2024-01-07T11:41:28;1.40;99.90
16321;DHT22;8269;50.990;4.494;2024-01-07T11:43:55;1.50;99.90
16321;DHT22;8269;50.990;4.494;2024-01-07T11:46:23;1.40;99.90
16321;DHT22;8269;50.990;4.494;2024-01-07T11:48:58;1.40;99.90
16321;DHT22;8269;50.990;4.494;2024-01-07T11:51:31;1.20;99.90
16321;DHT22;8269;50.990;4.494;2024-01-07T11:53:58;1.40;99.90
16321;DHT22;8269;50.990;4.494;2024-01-07T11:56:29;1.40;99.90
16321;DHT22;8269;50.990;4.494;2024-01-07T11:58:55;1.30;99.90
16321;DHT22;8269;50.990;4.494;2024-01-07T12:01:22;1.30;99.90
16321;DHT22;8269;50.990;4.494;2024-01-07T12:03:47;1.30;99.90
16321;DHT22;8269;50.990;4.494;2024-01-07T12:06:13;1.40;99.90
16321;DHT22;8269;50.990;4.494;2024-01-07T12:08:43;1.40;99.90
16321;DHT22;8269;50.990;4.494;2024-01-07T12:11:11;1.40;99.90
16321;DHT22;8269;50.990;4.494;2024-01-07T12:13:38;1.40;99.90
16321;DHT22;8269;50.990;4.494;2024-01-07T12:16:08;1.40;99.90
16321;DHT22;8269;50.990;4.494;2024-01-07T12:18:36;1.40;99.90
16321;DHT22;8269;50.990;4.494;2024-01-07T12:21:02;1.40;99.90
16321;DHT22;8269;50.990;4.494;2024-01-07T12:23:28;1.40;99.90
16321;DHT22;8269;50.990;4.494;2024-01-07T12:25:54;1.50;99.90
16321;DHT22;8269;50.990;4.494;2024-01-07T12:28:21;1.40;99.90
16321;DHT22;8269;50.990;4.494;2024-01-07T12:30:50;1.40;99.90
16321;DHT22;8269;50.990;4.494;2024-01-07T12:33:17;1.50;99.90
16321;DHT22;8269;50.990;4.494;2024-01-07T12:35:45;1.30;99.90
16321;DHT22;8269;50.990;4.494;2024-01-07T12:38:11;1.30;99.90
16321;DHT22;8269;50.990;4.494;2024-01-07T12:40:37;1.30;99.90
16321;DHT22;8269;50.990;4.494;2024-01-07T12:43:04;1.30;99.90
16321;DHT22;8269;50.990;4.494;2024-01-07T12:45:32;1.30;99.90
16321;DHT22;8269;50.990;4.494;2024-01-07T12:47:58;1.30;99.90
16321;DHT22;8269;50.990;4.494;2024-01-07T12:50:27;1.40;99.90
16321;DHT22;8269;50.990;4.494;2024-01-07T12:52:55;1.20;99.90
16321;DHT22;8269;50.990;4.494;2024-01-07T12:55:22;1.20;99.90
16321;DHT22;8269;50.990;4.494;2024-01-07T12:57:47;1.40;99.90
16321;DHT22;8269;50.990;4.494;2024-01-07T13:00:14;1.40;99.90
16321;DHT22;8269;50.990;4.494;2024-01-07T13:02:39;1.40;99.90
16321;DHT22;8269;50.990;4.494;2024-01-07T13:05:06;1.30;99.90
16321;DHT22;8269;50.990;4.494;2024-01-07T13:07:32;1.30;99.90
16321;DHT22;8269;50.990;4.494;2024-01-07T13:09:58;1.30;99.90
16321;DHT22;8269;50.990;4.494;2024-01-07T13:12:24;1.30;99.90
16321;DHT22;8269;50.990;4.494;2024-01-07T13:14:50;1.40;99.90
16321;DHT22;8269;50.990;4.494;2024-01-07T13:17:15;1.40;99.90
16321;DHT22;8269;50.990;4.494;2024-01-07T13:19:41;1.40;99.90
16321;DHT22;8269;50.990;4.494;2024-01-07T13:22:07;1.40;99.90
16321;DHT22;8269;50.990;4.494;2024-01-07T13:24:33;1.40;99.90
16321;DHT22;8269;50.990;4.494;2024-01-07T13:26:59;1.50;99.90
16321;DHT22;8269;50.990;4.494;2024-01-07T13:29:24;1.50;99.90
16321;DHT22;8269;50.990;4.494;2024-01-07T13:31:50;1.50;99.90
16321;DHT22;8269;50.990;4.494;2024-01-07T13:36:43;1.50;99.90
16321;DHT22;8269;50.990;4.494;2024-01-07T13:39:09;1.40;99.90
16321;DHT22;8269;50.990;4.494;2024-01-07T13:41:35;1.40;99.90
16321;DHT22;8269;50.990;4.494;2024-01-07T13:44:01;1.30;99.90
16321;DHT22;8269;50.990;4.494;2024-01-07T13:46:28;1.30;99.90
16321;DHT22;8269;50.990;4.494;2024-01-07T13:48:54;1.20;99.90
16321;DHT22;8269;50.990;4.494;2024-01-07T13:51:20;1.20;99.90
16321;DHT22;8269;50.990;4.494;2024-01-07T13:53:46;1.20;99.90
16321;DHT22;8269;50.990;4.494;2024-01-07T13:56:12;1.20;99.90
16321;DHT22;8269;50.990;4.494;2024-01-07T13:58:38;1.20;99.90
16321;DHT22;8269;50.990;4.494;2024-01-07T14:01:03;1.10;99.90
16321;DHT22;8269;50.990;4.494;2024-01-07T14:03:31;1.10;99.90
16321;DHT22;8269;50.990;4.494;2024-01-07T14:05:58;1.10;99.90
16321;DHT22;8269;50.990;4.494;2024-01-07T14:08:23;1.10;99.90
16321;DHT22;8269;50.990;4.494;2024-01-07T14:10:49;1.20;99.90
16321;DHT22;8269;50.990;4.494;2024-01-07T14:13:15;1.20;99.90
16321;DHT22;8269;50.990;4.494;2024-01-07T14:15:41;1.10;99.90
16321;DHT22;8269;50.990;4.494;2024-01-07T14:18:07;1.30;99.90
16321;DHT22;8269;50.990;4.494;2024-01-07T14:20:35;1.20;99.90
16321;DHT22;8269;50.990;4.494;2024-01-07T14:23:01;1.20;99.90
16321;DHT22;8269;50.990;4.494;2024-01-07T14:25:27;1.20;99.90
16321;DHT22;8269;50.990;4.494;2024-01-07T14:27:52;1.20;99.90
16321;DHT22;8269;50.990;4.494;2024-01-07T14:30:18;1.20;99.90
16321;DHT22;8269;50.990;4.494;2024-01-07T14:32:44;1.20;99.90
16321;DHT22;8269;50.990;4.494;2024-01-07T14:35:11;1.20;99.90
16321;DHT22;8269;50.990;4.494;2024-01-07T14:37:38;1.10;99.90
16321;DHT22;8269;50.990;4.494;2024-01-07T14:40:05;1.20;99.90
16321;DHT22;8269;50.990;4.494;2024-01-07T14:42:31;1.20;99.90
16321;DHT22;8269;50.990;4.494;2024-01-07T14:44:57;1.10;99.90
16321;DHT22;8269;50.990;4.494;2024-01-07T14:47:22;1.20;99.90
16321;DHT22;8269;50.990;4.494;2024-01-07T14:49:48;1.20;99.90
16321;DHT22;8269;50.990;4.494;2024-01-07T14:52:14;1.20;99.90
16321;DHT22;8269;50.990;4.494;2024-01-07T14:54:40;1.10;99.90
16321;DHT22;8269;50.990;4.494;2024-01-07T14:57:05;1.20;99.90
16321;DHT22;8269;50.990;4.494;2024-01-07T14:59:34;1.20;99.90
16321;DHT22;8269;50.990;4.494;2024-01-07T15:02:01;1.10;99.90
16321;DHT22;8269;50.990;4.494;2024-01-07T15:04:27;1.10;99.90
16321;DHT22;8269;50.990;4.494;2024-01-07T15:06:53;1.20;99.90
16321;DHT22;8269;50.990;4.494;2024-01-07T15:09:18;1.10;99.90
16321;DHT22;8269;50.990;4.494;2024-01-07T15:11:45;1.10;99.90
16321;DHT22;8269;50.990;4.494;2024-01-07T15:14:13;1.00;99.90
16321;DHT22;8269;50.990;4.494;2024-01-07T15:16:39;1.00;99.90
16321;DHT22;8269;50.990;4.494;2024-01-07T15:19:04;1.40;99.90
16321;DHT22;8269;50.990;4.494;2024-01-07T15:21:30;1.00;99.90
16321;DHT22;8269;50.990;4.494;2024-01-07T15:23:56;0.90;99.90
16321;DHT22;8269;50.990;4.494;2024-01-07T15:26:21;0.90;99.90
16321;DHT22;8269;50.990;4.494;2024-01-07T15:28:47;0.90;99.90
16321;DHT22;8269;50.990;4.494;2024-01-07T15:31:12;0.90;99.90
16321;DHT22;8269;50.990;4.494;2024-01-07T15:33:38;0.80;99.90
16321;DHT22;8269;50.990;4.494;2024-01-07T15:36:03;0.80;99.90
16321;DHT22;8269;50.990;4.494;2024-01-07T15:38:29;0.80;99.90
16321;DHT22;8269;50.990;4.494;2024-01-07T15:40:55;0.70;99.90
16321;DHT22;8269;50.990;4.494;2024-01-07T15:43:20;0.70;99.90
16321;DHT22;8269;50.990;4.494;2024-01-07T15:45:46;0.70;99.90
16321;DHT22;8269;50.990;4.494;2024-01-07T15:48:11;0.70;99.90
16321;DHT22;8269;50.990;4.494;2024-01-07T15:50:37;0.70;99.90
16321;DHT22;8269;50.990;4.494;2024-01-07T15:53:02;0.70;99.90
16321;DHT22;8269;50.990;4.494;2024-01-07T15:57:54;0.70;99.90
16321;DHT22;8269;50.990;4.494;2024-01-07T16:00:19;1.20;99.90
16321;DHT22;8269;50.990;4.494;2024-01-07T16:02:45;0.60;99.90
16321;DHT22;8269;50.990;4.494;2024-01-07T16:05:14;0.50;99.90
16321;DHT22;8269;50.990;4.494;2024-01-07T16:19:49;0.30;99.90
16321;DHT22;8269;50.990;4.494;2024-01-07T16:22:15;0.30;99.90
16321;DHT22;8269;50.990;4.494;2024-01-07T16:24:41;0.30;99.90
16321;DHT22;8269;50.990;4.494;2024-01-07T16:27:07;0.30;99.90
16321;DHT22;8269;50.990;4.494;2024-01-07T16:29:35;0.30;99.90
16321;DHT22;8269;50.990;4.494;2024-01-07T16:32:01;0.40;99.90
16321;DHT22;8269;50.990;4.494;2024-01-07T16:44:11;0.30;99.90
16321;DHT22;8269;50.990;4.494;2024-01-07T16:46:36;0.30;99.90
16321;DHT22;8269;50.990;4.494;2024-01-07T16:49:02;0.20;99.90
16321;DHT22;8269;50.990;4.494;2024-01-07T16:51:28;0.20;99.90
16321;DHT22;8269;50.990;4.494;2024-01-07T16:53:54;0.10;99.90
16321;DHT22;8269;50.990;4.494;2024-01-07T16:56:20;0.10;99.90
16321;DHT22;8269;50.990;4.494;2024-01-07T17:01:13;-0.10;99.90
16321;DHT22;8269;50.990;4.494;2024-01-07T17:03:39;0.00;99.90
16321;DHT22;8269;50.990;4.494;2024-01-07T17:06:05;0.00;99.90
16321;DHT22;8269;50.990;4.494;2024-01-07T17:08:32;0.00;99.90
16321;DHT22;8269;50.990;4.494;2024-01-07T17:10:58;0.00;99.90
16321;DHT22;8269;50.990;4.494;2024-01-07T17:13:24;0.00;99.90
16321;DHT22;8269;50.990;4.494;2024-01-07T17:15:49;-0.10;99.90
16321;DHT22;8269;50.990;4.494;2024-01-07T20:41:14;-1.40;99.90
16321;DHT22;8269;50.990;4.494;2024-01-07T20:43:42;-1.50;99.90
16321;DHT22;8269;50.990;4.494;2024-01-07T20:46:08;-1.50;99.90
16321;DHT22;8269;50.990;4.494;2024-01-07T20:48:35;-1.50;99.90
16321;DHT22;8269;50.990;4.494;2024-01-07T20:51:03;-1.50;99.90
16321;DHT22;8269;50.990;4.494;2024-01-07T20:53:29;-1.50;99.90
16321;DHT22;8269;50.990;4.494;2024-01-07T20:55:56;-1.60;99.90
16321;DHT22;8269;50.990;4.494;2024-01-07T20:58:24;-1.60;99.90
16321;DHT22;8269;50.990;4.494;2024-01-07T21:00:50;-1.60;99.90
16321;DHT22;8269;50.990;4.494;2024-01-07T21:03:16;-1.60;99.90
16321;DHT22;8269;50.990;4.494;2024-01-07T21:05:43;-1.60;99.90
16321;DHT22;8269;50.990;4.494;2024-01-07T21:08:09;-1.60;99.90
16321;DHT22;8269;50.990;4.494;2024-01-07T21:10:35;-1.60;99.90
16321;DHT22;8269;50.990;4.494;2024-01-07T21:13:13;-1.60;99.90
16321;DHT22;8269;50.990;4.494;2024-01-07T21:15:40;-1.60;99.90
16321;DHT22;8269;50.990;4.494;2024-01-07T21:18:06;-1.60;99.90
16321;DHT22;8269;50.990;4.494;2024-01-07T21:20:33;-1.60;99.90
16321;DHT22;8269;50.990;4.494;2024-01-07T21:23:01;-1.60;99.90
16321;DHT22;8269;50.990;4.494;2024-01-07T21:25:27;-1.70;99.90
16321;DHT22;8269;50.990;4.494;2024-01-07T21:27:52;-1.70;99.90
16321;DHT22;8269;50.990;4.494;2024-01-07T21:30:19;-1.70;99.90
16321;DHT22;8269;50.990;4.494;2024-01-07T21:32:45;-1.70;99.90
16321;DHT22;8269;50.990;4.494;2024-01-07T21:35:11;-1.70;99.90
16321;DHT22;8269;50.990;4.494;2024-01-07T21:37:37;-1.70;99.90
16321;DHT22;8269;50.990;4.494;2024-01-07T21:40:03;-1.70;99.90